createdAt,value
2022-08-04T00:00:31.615Z,5.65
2022-08-04T00:03:16.424Z,5.55
2022-08-04T00:06:03.613Z,5.68
2022-08-04T00:08:58.419Z,5.38
2022-08-04T00:11:31.471Z,5.13
2022-08-04T00:14:11.254Z,5.25
2022-08-04T00:16:40.870Z,4.93
2022-08-04T00:19:31.946Z,5.45
2022-08-04T00:22:05.295Z,5.20
2022-08-04T00:24:34.000Z,4.88
2022-08-04T00:27:01.491Z,4.82
2022-08-04T00:29:29.238Z,4.53
2022-08-04T00:31:57.921Z,4.57
2022-08-04T00:34:31.415Z,4.22
2022-08-04T00:36:58.801Z,4.45
2022-08-04T00:39:26.985Z,4.60
2022-08-04T00:42:18.141Z,4.50
2022-08-04T00:45:22.532Z,4.43
2022-08-04T00:48:12.911Z,3.92
2022-08-04T00:50:50.519Z,3.75
2022-08-04T00:53:53.211Z,4.15
2022-08-04T00:56:49.288Z,3.90
2022-08-04T00:59:42.397Z,3.17
2022-08-04T01:02:35.331Z,3.70
2022-08-04T01:05:40.079Z,3.80
2022-08-04T01:08:28.529Z,3.72
2022-08-04T01:11:56.887Z,3.67
2022-08-04T01:15:01.147Z,3.78
2022-08-04T01:18:07.637Z,3.80
2022-08-04T01:21:06.808Z,3.83
2022-08-04T01:24:17.177Z,3.88
2022-08-04T01:27:09.614Z,3.47
2022-08-04T01:29:50.143Z,3.95
2022-08-04T01:32:32.307Z,3.65
2022-08-04T01:35:47.192Z,3.85
2022-08-04T01:38:37.527Z,3.30
2022-08-04T01:41:07.925Z,3.60
2022-08-04T01:43:40.794Z,3.22
2022-08-04T01:46:14.225Z,3.58
2022-08-04T01:48:51.249Z,3.53
2022-08-04T01:51:22.037Z,3.42
2022-08-04T01:53:49.043Z,3.53
2022-08-04T01:56:17.221Z,3.25
2022-08-04T01:58:44.208Z,3.22
2022-08-04T02:01:13.650Z,3.45
2022-08-04T02:04:21.272Z,3.28
2022-08-04T02:06:44.356Z,3.13
2022-08-04T02:09:30.446Z,3.20
2022-08-04T02:12:52.143Z,3.28
2022-08-04T02:16:17.306Z,3.30
2022-08-04T02:19:00.271Z,3.28
2022-08-04T02:21:42.524Z,3.20
2022-08-04T02:24:16.353Z,2.85
2022-08-04T02:26:50.385Z,3.33
2022-08-04T02:29:40.586Z,3.15
2022-08-04T02:32:22.210Z,3.45
2022-08-04T02:34:54.724Z,3.13
2022-08-04T02:37:24.336Z,2.55
2022-08-04T02:39:54.374Z,2.88
2022-08-04T02:42:22.748Z,2.75
2022-08-04T02:44:51.953Z,2.78
2022-08-04T02:47:22.330Z,3.38
2022-08-04T02:49:51.989Z,2.65
2022-08-04T02:52:21.138Z,2.75
2022-08-04T02:54:53.413Z,2.67
2022-08-04T02:57:26.879Z,3.05
2022-08-04T03:00:20.421Z,2.90
2022-08-04T03:03:26.489Z,3.50
2022-08-04T03:06:44.519Z,3.03
2022-08-04T03:09:48.245Z,3.00
2022-08-04T03:12:59.092Z,2.80
2022-08-04T03:16:08.311Z,3.05
2022-08-04T03:19:43.445Z,3.35
2022-08-04T03:23:12.061Z,3.15
2022-08-04T03:26:04.545Z,2.90
2022-08-04T03:29:36.105Z,3.42
2022-08-04T03:33:13.493Z,3.05
2022-08-04T03:36:08.918Z,3.42
2022-08-04T03:39:03.466Z,3.35
2022-08-04T03:42:03.998Z,3.15
2022-08-04T03:45:23.195Z,3.38
2022-08-04T03:48:27.863Z,3.65
2022-08-04T03:51:53.109Z,3.78
2022-08-04T03:55:16.795Z,4.25
2022-08-04T03:58:40.765Z,3.67
2022-08-04T04:02:02.904Z,3.05
2022-08-04T04:05:01.041Z,3.60
2022-08-04T04:08:01.729Z,4.10
2022-08-04T04:10:49.333Z,3.47
2022-08-04T04:13:42.030Z,4.03
2022-08-04T04:16:17.499Z,3.38
2022-08-04T04:19:31.636Z,3.42
2022-08-04T04:22:13.137Z,3.75
2022-08-04T04:25:03.100Z,4.30
2022-08-04T04:28:44.525Z,4.05
2022-08-04T04:31:15.913Z,4.15
2022-08-04T04:34:17.011Z,4.07
2022-08-04T04:36:46.712Z,3.55
2022-08-04T04:39:20.412Z,3.88
2022-08-04T04:42:17.291Z,3.60
2022-08-04T04:45:05.875Z,3.55
2022-08-04T04:48:07.191Z,3.20
2022-08-04T04:51:16.444Z,3.47
2022-08-04T04:54:01.275Z,3.00
2022-08-04T04:56:58.002Z,3.17
2022-08-04T04:59:33.810Z,4.22
2022-08-04T05:02:31.318Z,3.97
2022-08-04T05:05:19.767Z,3.75
2022-08-04T05:07:46.690Z,2.90
2022-08-04T05:10:50.460Z,3.33
2022-08-04T05:14:37.034Z,2.60
2022-08-04T05:16:55.630Z,3.28
2022-08-04T05:20:01.185Z,3.00
2022-08-04T05:22:54.259Z,2.92
2022-08-04T05:25:59.535Z,3.20
2022-08-04T05:28:45.431Z,3.40
2022-08-04T05:31:20.196Z,2.92
2022-08-04T05:34:00.775Z,2.78
2022-08-04T05:36:46.611Z,3.35
2022-08-04T05:39:34.151Z,3.30
2022-08-04T05:42:04.702Z,3.42
2022-08-04T05:44:33.916Z,3.55
2022-08-04T05:47:04.290Z,4.03
2022-08-04T05:49:32.878Z,3.10
2022-08-04T05:52:05.053Z,3.05
2022-08-04T05:54:35.411Z,3.38
2022-08-04T05:57:08.681Z,3.35
2022-08-04T05:59:42.311Z,3.53
2022-08-04T06:02:10.482Z,3.42
2022-08-04T06:04:43.561Z,3.33
2022-08-04T06:07:11.417Z,3.10
2022-08-04T06:09:38.672Z,3.78
2022-08-04T06:12:14.627Z,3.25
2022-08-04T06:14:47.760Z,3.30
2022-08-04T06:18:35.217Z,3.55
2022-08-04T06:20:19.245Z,3.90
2022-08-04T06:22:54.567Z,3.70
2022-08-04T06:25:29.679Z,3.28
2022-08-04T06:27:58.004Z,3.42
2022-08-04T06:30:28.424Z,3.33
2022-08-04T06:33:03.381Z,2.80
2022-08-04T06:35:33.237Z,3.33
2022-08-04T06:38:01.939Z,2.67
2022-08-04T06:40:33.329Z,3.05
2022-08-04T06:43:07.278Z,3.10
2022-08-04T06:45:37.407Z,3.00
2022-08-04T06:48:06.839Z,2.58
2022-08-04T06:51:31.439Z,2.50
2022-08-04T06:53:26.205Z,2.58
2022-08-04T06:55:55.829Z,2.20
2022-08-04T06:58:24.719Z,2.95
2022-08-04T07:00:52.983Z,2.60
2022-08-04T07:03:22.079Z,2.53
2022-08-04T07:05:51.238Z,2.45
2022-08-04T07:08:19.201Z,2.55
2022-08-04T07:10:46.991Z,2.85
2022-08-04T07:13:14.685Z,3.17
2022-08-04T07:15:46.743Z,2.72
2022-08-04T07:18:13.952Z,2.63
2022-08-04T07:20:43.701Z,2.58
2022-08-04T07:23:17.455Z,2.47
2022-08-04T07:25:59.022Z,2.30
2022-08-04T07:28:30.970Z,2.25
2022-08-04T07:30:58.900Z,2.40
2022-08-04T07:33:26.153Z,2.50
2022-08-04T07:36:08.353Z,2.63
2022-08-04T07:38:48.284Z,2.50
2022-08-04T07:41:43.294Z,2.70
2022-08-04T07:44:15.756Z,2.10
2022-08-04T07:46:45.692Z,2.35
2022-08-04T07:49:12.924Z,2.05
2022-08-04T07:52:01.913Z,2.30
2022-08-04T07:54:29.336Z,2.50
2022-08-04T07:56:56.840Z,2.65
2022-08-04T07:59:24.944Z,2.42
2022-08-04T08:01:53.226Z,2.55
2022-08-04T08:04:21.924Z,1.95
2022-08-04T08:06:49.063Z,2.22
2022-08-04T08:09:24.026Z,2.10
2022-08-04T08:12:38.285Z,2.72
2022-08-04T08:14:41.325Z,2.33
2022-08-04T08:17:08.470Z,2.45
2022-08-04T08:19:36.265Z,2.30
2022-08-04T08:22:04.485Z,2.22
2022-08-04T08:24:36.024Z,2.13
2022-08-04T08:27:04.910Z,1.63
2022-08-04T08:29:35.254Z,2.30
2022-08-04T08:32:08.871Z,2.00
2022-08-04T08:34:38.025Z,2.10
2022-08-04T08:37:30.881Z,1.83
2022-08-04T08:40:46.678Z,2.08
2022-08-04T08:44:30.124Z,2.00
2022-08-04T08:48:05.240Z,2.03
2022-08-04T08:50:51.131Z,1.83
2022-08-04T08:54:08.547Z,1.75
2022-08-04T08:57:00.451Z,2.10
2022-08-04T08:59:53.555Z,2.05
2022-08-04T09:03:04.543Z,2.30
2022-08-04T09:05:43.871Z,2.33
2022-08-04T09:08:55.656Z,2.33
2022-08-04T09:11:48.444Z,2.25
2022-08-04T09:14:26.159Z,2.00
2022-08-04T09:17:03.084Z,2.45
2022-08-04T09:19:45.892Z,1.98
2022-08-04T09:22:45.081Z,2.22
2022-08-04T09:25:18.558Z,1.90
2022-08-04T09:27:55.681Z,1.95
2022-08-04T09:30:36.950Z,2.30
2022-08-04T09:33:45.816Z,2.05
2022-08-04T09:36:37.414Z,1.90
2022-08-04T09:39:37.534Z,1.80
2022-08-04T09:42:33.834Z,2.20
2022-08-04T09:45:26.572Z,2.50
2022-08-04T09:48:44.495Z,1.92
2022-08-04T09:51:57.934Z,1.60
2022-08-04T09:54:44.459Z,1.90
2022-08-04T09:57:41.776Z,2.45
2022-08-04T10:00:13.630Z,2.35
2022-08-04T10:02:49.594Z,2.10
2022-08-04T10:05:38.806Z,2.03
2022-08-04T10:08:44.471Z,2.75
2022-08-04T10:11:54.509Z,2.10
2022-08-04T10:15:06.734Z,2.50
2022-08-04T10:18:24.809Z,2.17
2022-08-04T10:21:14.855Z,2.35
2022-08-04T10:24:15.126Z,2.35
2022-08-04T10:27:08.135Z,2.58
2022-08-04T10:29:44.747Z,2.25
2022-08-04T10:32:43.941Z,2.63
2022-08-04T10:35:24.173Z,2.63
2022-08-04T10:38:13.422Z,2.20
2022-08-04T10:40:48.351Z,2.60
2022-08-04T10:44:00.259Z,2.33
2022-08-04T10:46:57.558Z,2.50
2022-08-04T10:49:30.489Z,2.38
2022-08-04T10:52:33.906Z,2.67
2022-08-04T10:56:06.450Z,2.22
2022-08-04T10:58:47.721Z,2.85
2022-08-04T11:01:50.674Z,2.60
2022-08-04T11:04:47.595Z,2.58
2022-08-04T11:07:17.167Z,2.80
2022-08-04T11:09:45.393Z,2.70
2022-08-04T11:12:25.613Z,3.03
2022-08-04T11:15:18.816Z,3.22
2022-08-04T11:17:55.411Z,2.50
2022-08-04T11:20:43.672Z,2.28
2022-08-04T11:23:22.183Z,2.72
2022-08-04T11:26:15.662Z,2.83
2022-08-04T11:29:09.505Z,2.80
2022-08-04T11:31:41.758Z,3.25
2022-08-04T11:34:20.096Z,2.80
2022-08-04T11:37:00.409Z,2.50
2022-08-04T11:39:56.049Z,2.30
2022-08-04T11:42:33.969Z,2.53
2022-08-04T11:45:08.072Z,2.42
2022-08-04T11:48:17.228Z,3.10
2022-08-04T11:50:53.952Z,2.53
2022-08-04T11:53:25.466Z,2.80
2022-08-04T11:56:07.791Z,2.67
2022-08-04T11:58:38.103Z,2.65
2022-08-04T12:02:02.702Z,2.58
2022-08-04T12:05:00.352Z,3.25
2022-08-04T12:07:41.960Z,2.55
2022-08-04T12:10:41.855Z,2.78
2022-08-04T12:13:42.080Z,2.60
2022-08-04T12:16:11.853Z,2.83
2022-08-04T12:18:45.729Z,2.92
2022-08-04T12:21:35.097Z,2.72
2022-08-04T12:24:08.645Z,2.70
2022-08-04T12:26:42.927Z,2.58
2022-08-04T12:29:15.208Z,2.60
2022-08-04T12:31:51.122Z,2.80
2022-08-04T12:34:35.446Z,2.90
2022-08-04T12:37:47.538Z,2.67
2022-08-04T12:40:30.605Z,2.97
2022-08-04T12:43:11.537Z,2.38
2022-08-04T12:45:48.967Z,2.92
2022-08-04T12:48:21.386Z,2.95
2022-08-04T12:50:56.839Z,2.67
2022-08-04T12:53:51.121Z,2.40
2022-08-04T12:56:28.425Z,2.90
2022-08-04T12:59:06.273Z,2.60
2022-08-04T13:02:08.920Z,2.53
2022-08-04T13:04:38.311Z,2.70
2022-08-04T13:07:15.323Z,2.90
2022-08-04T13:09:43.483Z,2.58
2022-08-04T13:12:32.882Z,2.63
2022-08-04T13:15:18.611Z,2.58
2022-08-04T13:18:04.328Z,2.40
2022-08-04T13:20:35.519Z,2.80
2022-08-04T13:23:15.184Z,2.38
2022-08-04T13:26:43.810Z,2.85
2022-08-04T13:28:44.998Z,2.70
2022-08-04T13:31:26.702Z,2.90
2022-08-04T13:34:08.192Z,2.70
2022-08-04T13:36:48.081Z,3.03
2022-08-04T13:39:19.969Z,2.83
2022-08-04T13:41:54.467Z,3.00
2022-08-04T13:44:31.765Z,2.50
2022-08-04T13:47:14.149Z,2.63
2022-08-04T13:49:54.531Z,2.50
2022-08-04T13:52:28.347Z,2.42
2022-08-04T13:54:55.333Z,2.42
2022-08-04T13:57:32.075Z,2.80
2022-08-04T14:00:08.831Z,2.97
2022-08-04T14:03:19.089Z,2.42
2022-08-04T14:06:35.158Z,2.60
2022-08-04T14:09:21.460Z,3.00
2022-08-04T14:12:12.614Z,3.53
2022-08-04T14:14:53.923Z,2.38
2022-08-04T14:17:30.211Z,2.55
2022-08-04T14:20:01.180Z,2.60
2022-08-04T14:22:29.059Z,2.70
2022-08-04T14:25:15.418Z,2.60
2022-08-04T14:27:57.323Z,2.78
2022-08-04T14:30:38.079Z,2.45
2022-08-04T14:34:03.819Z,2.47
2022-08-04T14:36:04.238Z,2.10
2022-08-04T14:38:48.171Z,2.60
2022-08-04T14:41:17.178Z,2.38
2022-08-04T14:43:49.227Z,2.90
2022-08-04T14:46:16.581Z,2.50
2022-08-04T14:49:13.018Z,2.92
2022-08-04T14:51:55.190Z,3.00
2022-08-04T14:54:34.637Z,2.70
2022-08-04T14:57:06.273Z,2.65
2022-08-04T14:59:58.977Z,2.45
2022-08-04T15:02:29.822Z,2.72
2022-08-04T15:04:58.896Z,2.45
2022-08-04T15:07:26.905Z,2.35
2022-08-04T15:09:54.855Z,2.30
2022-08-04T15:12:22.713Z,2.78
2022-08-04T15:14:50.020Z,2.63
2022-08-04T15:17:29.848Z,2.85
2022-08-04T15:19:58.367Z,2.30
2022-08-04T15:22:25.608Z,3.00
2022-08-04T15:24:55.378Z,2.50
2022-08-04T15:27:29.904Z,2.58
2022-08-04T15:30:09.825Z,2.90
2022-08-04T15:32:41.718Z,2.70
2022-08-04T15:35:23.279Z,2.80
2022-08-04T15:38:15.217Z,2.70
2022-08-04T15:41:01.868Z,2.42
2022-08-04T15:43:59.341Z,2.42
2022-08-04T15:46:49.616Z,2.72
2022-08-04T15:49:22.766Z,2.67
2022-08-04T15:52:04.842Z,2.78
2022-08-04T15:54:42.351Z,2.45
2022-08-04T15:58:01.530Z,2.55
2022-08-04T16:00:28.849Z,2.33
2022-08-04T16:02:56.070Z,2.70
2022-08-04T16:05:23.489Z,2.55
2022-08-04T16:08:13.026Z,2.38
2022-08-04T16:10:43.614Z,2.30
2022-08-04T16:13:23.531Z,2.25
2022-08-04T16:16:03.207Z,2.40
2022-08-04T16:18:30.652Z,2.20
2022-08-04T16:21:08.580Z,2.42
2022-08-04T16:23:56.841Z,2.55
2022-08-04T16:26:45.406Z,2.33
2022-08-04T16:29:34.526Z,2.30
2022-08-04T16:32:18.426Z,2.40
2022-08-04T16:35:04.238Z,2.45
2022-08-04T16:37:40.695Z,2.30
2022-08-04T16:40:39.556Z,2.08
2022-08-04T16:43:15.616Z,2.80
2022-08-04T16:46:05.114Z,2.58
2022-08-04T16:48:35.009Z,1.95
2022-08-04T16:51:06.759Z,2.20
2022-08-04T16:54:02.663Z,2.20
2022-08-04T16:56:37.455Z,2.65
2022-08-04T16:59:13.233Z,2.20
2022-08-04T17:01:48.121Z,2.55
2022-08-04T17:04:15.675Z,1.65
2022-08-04T17:06:46.361Z,2.20
2022-08-04T17:09:18.918Z,2.50
2022-08-04T17:11:48.345Z,2.15
2022-08-04T17:14:26.463Z,1.90
2022-08-04T17:16:57.045Z,2.03
2022-08-04T17:19:26.396Z,2.03
2022-08-04T17:22:06.081Z,2.33
2022-08-04T17:24:40.673Z,2.20
2022-08-04T17:28:09.616Z,1.92
2022-08-04T17:29:55.757Z,2.10
2022-08-04T17:32:23.919Z,1.83
2022-08-04T17:34:55.208Z,2.38
2022-08-04T17:37:39.169Z,2.20
2022-08-04T17:40:18.270Z,2.00
2022-08-04T17:44:04.811Z,1.90
2022-08-04T17:46:41.281Z,2.53
2022-08-04T17:49:16.592Z,2.10
2022-08-04T17:52:04.931Z,2.08
2022-08-04T17:57:23.713Z,2.33
2022-08-04T17:59:59.159Z,3.03
2022-08-04T18:02:32.266Z,2.47
2022-08-04T18:05:12.360Z,2.10
2022-08-04T18:08:41.416Z,2.35
2022-08-04T18:10:51.669Z,2.50
2022-08-04T18:13:22.072Z,2.42
2022-08-04T18:15:51.276Z,2.30
2022-08-04T18:18:23.602Z,2.38
2022-08-04T18:20:51.030Z,3.42
2022-08-04T18:23:18.072Z,2.97
2022-08-04T18:25:51.166Z,2.75
2022-08-04T18:28:22.677Z,2.85
2022-08-04T18:30:55.423Z,2.42
2022-08-04T18:33:39.642Z,3.67
2022-08-04T18:36:33.963Z,3.20
2022-08-04T18:42:04.248Z,3.58
2022-08-04T18:44:32.782Z,3.45
2022-08-04T18:47:22.226Z,3.33
2022-08-04T18:52:45.269Z,3.33
2022-08-04T18:55:55.416Z,2.83
2022-08-04T18:58:06.119Z,3.17
2022-08-04T19:00:34.951Z,2.95
2022-08-04T19:03:02.585Z,3.03
2022-08-04T19:05:37.999Z,3.40
2022-08-04T19:08:32.486Z,2.95
2022-08-04T19:10:59.881Z,3.00
2022-08-04T19:13:29.689Z,3.00
2022-08-04T19:16:02.105Z,3.00
2022-08-04T19:18:31.108Z,2.72
2022-08-04T19:20:59.299Z,3.45
2022-08-04T19:24:27.956Z,3.15
2022-08-04T19:26:28.051Z,3.45
2022-08-04T19:28:56.128Z,3.60
2022-08-04T19:31:28.164Z,3.10
2022-08-04T19:34:08.448Z,3.67
2022-08-04T19:36:36.052Z,4.40
2022-08-04T19:39:11.544Z,4.07
2022-08-04T19:42:04.552Z,4.25
2022-08-04T19:44:29.879Z,4.07
2022-08-04T19:47:00.858Z,4.35
2022-08-04T19:50:04.697Z,4.63
2022-08-04T19:52:34.098Z,4.05
2022-08-04T19:55:10.717Z,4.93
2022-08-04T19:57:46.089Z,6.18
2022-08-04T20:00:14.317Z,6.07
2022-08-04T20:02:42.357Z,4.72
2022-08-04T20:05:09.673Z,6.22
2022-08-04T20:07:37.001Z,6.93
2022-08-04T20:10:07.613Z,5.28
2022-08-04T20:12:42.186Z,5.88
2022-08-04T20:15:11.046Z,7.55
2022-08-04T20:18:07.685Z,5.68
2022-08-04T20:20:29.357Z,4.00
2022-08-04T20:22:56.351Z,3.92
2022-08-04T20:25:36.650Z,3.97
2022-08-04T20:28:05.304Z,3.10
2022-08-04T20:30:35.584Z,3.85
2022-08-04T20:33:04.340Z,3.40
2022-08-04T20:35:45.927Z,3.45
2022-08-04T20:38:33.589Z,3.90
2022-08-04T20:41:02.061Z,4.00
2022-08-04T20:43:31.373Z,3.75
2022-08-04T20:45:59.390Z,3.40
2022-08-04T20:48:33.643Z,3.97
2022-08-04T20:51:02.098Z,3.58
2022-08-04T20:53:46.439Z,3.80
2022-08-04T20:56:19.094Z,4.05
2022-08-04T20:58:57.433Z,3.83
2022-08-04T21:04:30.209Z,3.60
2022-08-04T21:07:03.320Z,3.97
2022-08-04T21:09:38.199Z,3.30
2022-08-04T21:15:13.361Z,4.00
2022-08-04T21:17:59.559Z,4.40
2022-08-04T21:20:31.372Z,3.75
2022-08-04T21:23:02.304Z,4.10
2022-08-04T21:25:32.417Z,4.10
2022-08-04T21:28:09.759Z,3.80
2022-08-04T21:30:54.066Z,4.57
2022-08-04T21:33:44.717Z,4.18
2022-08-04T21:36:12.537Z,4.20
2022-08-04T21:38:39.698Z,3.78
2022-08-04T21:41:09.033Z,4.47
2022-08-04T21:43:43.130Z,4.07
2022-08-04T21:46:11.455Z,4.80
2022-08-04T21:48:39.734Z,4.47
2022-08-04T21:51:57.963Z,4.57
2022-08-04T21:54:17.167Z,4.50
2022-08-04T21:56:50.982Z,4.15
2022-08-04T21:59:23.960Z,4.50
2022-08-04T22:02:00.390Z,4.45
2022-08-04T22:04:28.735Z,4.47
2022-08-04T22:06:55.924Z,4.85
2022-08-04T22:09:23.035Z,4.25
2022-08-04T22:11:51.757Z,4.50
2022-08-04T22:14:27.471Z,4.43
2022-08-04T22:16:58.588Z,4.10
2022-08-04T22:19:40.363Z,4.28
2022-08-04T22:22:25.217Z,4.25
2022-08-04T22:24:55.445Z,4.72
2022-08-04T22:27:47.689Z,5.10
2022-08-04T22:30:23.268Z,4.10
2022-08-04T22:32:50.646Z,4.55
2022-08-04T22:35:36.442Z,4.63
2022-08-04T22:38:24.004Z,3.83
2022-08-04T22:41:09.857Z,4.28
2022-08-04T22:43:37.778Z,4.10
2022-08-04T22:46:27.531Z,4.55
2022-08-04T22:48:55.105Z,4.90
2022-08-04T22:51:23.229Z,4.93
2022-08-04T22:53:51.679Z,4.53
2022-08-04T22:56:37.394Z,4.00
2022-08-04T22:59:09.966Z,4.18
2022-08-04T23:01:59.693Z,4.43
2022-08-04T23:04:25.144Z,4.07
2022-08-04T23:06:54.412Z,4.75
2022-08-04T23:09:49.159Z,3.97
2022-08-04T23:12:27.236Z,4.75
2022-08-04T23:14:57.041Z,4.60
2022-08-04T23:17:25.036Z,4.30
2022-08-04T23:19:57.458Z,3.90
2022-08-04T23:22:42.154Z,4.50
2022-08-04T23:25:16.155Z,4.60
2022-08-04T23:27:51.380Z,4.45
2022-08-04T23:30:24.884Z,3.88
2022-08-04T23:32:58.151Z,4.13
2022-08-04T23:35:25.223Z,4.53
2022-08-04T23:37:57.866Z,4.10
2022-08-04T23:40:34.297Z,4.50
2022-08-04T23:43:17.212Z,4.18
2022-08-04T23:46:07.981Z,4.10
2022-08-04T23:48:40.210Z,3.97
2022-08-04T23:51:14.331Z,4.00
2022-08-04T23:54:02.464Z,4.03
2022-08-04T23:56:34.170Z,4.28
2022-08-04T23:59:03.995Z,4.22
